Akaska, South Dakota
Current Conditions -  °F | °C
As of 5:52 PM on Saturday 25 Oct 2014 (Local Time) from KMBG Reporting Station
Clear Clear  
Wind Chill: 65°   Ceiling: Unl
Heat Index: 65°   Visibility: 10mi
Dew Point: 31°   Wind: 6mph
Humidity: 28%   Direction: 150°SSE
Pressure: 30.02"   Gusts: NA
Location:  45.33°N, 100.12°W
Report Text: KMBG 252252Z AUTO 15005KT 10SM CLR 18/M01 A3002 RMK AO2 SLP167 T01831006
Loading
Personal Weather Stations






























Interactive Weather Map New forecast layout! Learn more

10-Day Weather Forecast

Advertisements
Track Severe Weather on mobile